Latest METARs, TAFs and NOTAMs for LHBP


---------------------------------------------------------------------------
	(OBSERVATIONS)
LHBP 261800Z 00000KT CAVOK 04/00 Q1024 NOSIG=
LHBP 261730Z 27001KT CAVOK 05/00 Q1024 NOSIG=
LHBP 261700Z VRB01KT CAVOK 06/01 Q1024 NOSIG=
LHBP 261630Z 04003KT CAVOK 06/01 Q1024 NOSIG=
LHBP 261600Z 07002KT CAVOK 08/01 Q1023 NOSIG=
LHBP 261530Z 09003KT CAVOK 11/02 Q1023 NOSIG=
---------------------------------------------------------------------------
	(FC)
Sorry, FC For LHBP Not Found
---------------------------------------------------------------------------
	(TERMINAL AREA FORECAST)
LHBP 261715Z 2618/2718 VRB03KT CAVOK=
---------------------------------------------------------------------------
	(NOTAMS)


Sorry, no NOTAM available for LHBP
---------------------------------------------------------------------------